sensor_id;sensor_type;location;lat;lon;timestamp;pressure;altitude;pressure_sealevel;temperature;humidity
44979;BME280;67464;52.438;-1.904;2023-03-03T00:01:57;101395.57;;;2.88;72.08
44979;BME280;67464;52.438;-1.904;2023-03-03T00:04:22;101390.14;;;3.89;70.98
44979;BME280;67464;52.438;-1.904;2023-03-03T00:06:47;101386.08;;;3.86;70.91
44979;BME280;67464;52.438;-1.904;2023-03-03T00:09:12;101389.30;;;3.05;69.88
44979;BME280;67464;52.438;-1.904;2023-03-03T00:11:38;101390.68;;;2.05;74.53
44979;BME280;67464;52.438;-1.904;2023-03-03T00:14:20;101397.49;;;2.54;81.43
44979;BME280;67464;52.438;-1.904;2023-03-03T00:16:31;101396.72;;;2.84;81.42
44979;BME280;67464;52.438;-1.904;2023-03-03T00:18:54;101399.46;;;2.19;78.95
44979;BME280;67464;52.438;-1.904;2023-03-03T00:21:24;101405.81;;;1.57;80.92
44979;BME280;67464;52.438;-1.904;2023-03-03T00:23:44;101401.01;;;1.87;80.21
44979;BME280;67464;52.438;-1.904;2023-03-03T00:26:17;101396.23;;;3.28;82.24
44979;BME280;67464;52.438;-1.904;2023-03-03T00:28:43;101395.42;;;2.53;76.23
44979;BME280;67464;52.438;-1.904;2023-03-03T00:31:01;101392.44;;;2.57;76.49
44979;BME280;67464;52.438;-1.904;2023-03-03T00:33:28;101386.64;;;3.93;76.93
44979;BME280;67464;52.438;-1.904;2023-03-03T00:35:51;101387.91;;;3.93;68.88
44979;BME280;67464;52.438;-1.904;2023-03-03T00:38:17;101389.50;;;4.53;70.12
44979;BME280;67464;52.438;-1.904;2023-03-03T00:40:42;101391.55;;;4.02;67.90
44979;BME280;67464;52.438;-1.904;2023-03-03T00:43:16;101387.49;;;3.72;71.15
44979;BME280;67464;52.438;-1.904;2023-03-03T00:45:38;101389.23;;;3.62;73.55
44979;BME280;67464;52.438;-1.904;2023-03-03T00:48:10;101389.01;;;3.79;70.42
44979;BME280;67464;52.438;-1.904;2023-03-03T00:50:29;101390.20;;;3.61;70.41
44979;BME280;67464;52.438;-1.904;2023-03-03T00:52:58;101391.61;;;3.78;71.26
44979;BME280;67464;52.438;-1.904;2023-03-03T00:55:15;101390.81;;;4.38;71.94
44979;BME280;67464;52.438;-1.904;2023-03-03T00:57:40;101393.28;;;3.99;69.01
44979;BME280;67464;52.438;-1.904;2023-03-03T01:00:07;101393.59;;;4.21;68.04
44979;BME280;67464;52.438;-1.904;2023-03-03T01:02:31;101393.58;;;4.18;71.20
44979;BME280;67464;52.438;-1.904;2023-03-03T01:04:56;101399.47;;;4.41;71.86
44979;BME280;67464;52.438;-1.904;2023-03-03T01:07:22;101399.71;;;4.70;68.25
44979;BME280;67464;52.438;-1.904;2023-03-03T01:09:47;101400.22;;;4.98;65.95
44979;BME280;67464;52.438;-1.904;2023-03-03T01:12:13;101397.21;;;3.81;66.97
44979;BME280;67464;52.438;-1.904;2023-03-03T01:14:39;101401.17;;;3.83;68.30
44979;BME280;67464;52.438;-1.904;2023-03-03T01:17:04;101401.51;;;3.50;71.68
44979;BME280;67464;52.438;-1.904;2023-03-03T01:19:29;101407.30;;;3.63;67.10
44979;BME280;67464;52.438;-1.904;2023-03-03T01:21:55;101408.36;;;3.01;71.96
44979;BME280;67464;52.438;-1.904;2023-03-03T01:24:20;101408.67;;;2.51;77.16
44979;BME280;67464;52.438;-1.904;2023-03-03T01:26:46;101406.67;;;2.91;77.13
44979;BME280;67464;52.438;-1.904;2023-03-03T01:29:11;101408.08;;;3.07;77.83
44979;BME280;67464;52.438;-1.904;2023-03-03T01:31:36;101405.60;;;3.67;75.19
44979;BME280;67464;52.438;-1.904;2023-03-03T01:34:02;101406.99;;;3.50;77.10
44979;BME280;67464;52.438;-1.904;2023-03-03T01:36:28;101411.02;;;4.38;68.16
44979;BME280;67464;52.438;-1.904;2023-03-03T01:38:52;101411.20;;;3.92;71.49
44979;BME280;67464;52.438;-1.904;2023-03-03T01:41:18;101415.92;;;2.96;75.69
44979;BME280;67464;52.438;-1.904;2023-03-03T01:43:44;101412.93;;;3.38;73.38
44979;BME280;67464;52.438;-1.904;2023-03-03T01:46:28;101414.14;;;3.44;73.37
44979;BME280;67464;52.438;-1.904;2023-03-03T01:48:36;101412.50;;;3.39;72.78
44979;BME280;67464;52.438;-1.904;2023-03-03T01:51:01;101411.15;;;4.03;71.72
44979;BME280;67464;52.438;-1.904;2023-03-03T01:53:31;101414.11;;;4.06;67.38
44979;BME280;67464;52.438;-1.904;2023-03-03T01:55:50;101416.87;;;3.76;71.93
44979;BME280;67464;52.438;-1.904;2023-03-03T01:58:18;101417.50;;;3.72;71.17
44979;BME280;67464;52.438;-1.904;2023-03-03T02:00:43;101414.11;;;3.76;69.02
44979;BME280;67464;52.438;-1.904;2023-03-03T02:03:06;101416.77;;;3.08;71.15
44979;BME280;67464;52.438;-1.904;2023-03-03T02:05:32;101419.91;;;2.91;73.16
44979;BME280;67464;52.438;-1.904;2023-03-03T02:07:57;101415.34;;;3.71;75.77
44979;BME280;67464;52.438;-1.904;2023-03-03T02:10:23;101419.25;;;3.66;69.29
44979;BME280;67464;52.438;-1.904;2023-03-03T02:12:51;101418.64;;;3.79;74.73
44979;BME280;67464;52.438;-1.904;2023-03-03T02:15:18;101414.72;;;3.42;70.61
44979;BME280;67464;52.438;-1.904;2023-03-03T02:17:38;101414.13;;;3.47;68.00
44979;BME280;67464;52.438;-1.904;2023-03-03T02:20:07;101411.47;;;4.43;67.29
44979;BME280;67464;52.438;-1.904;2023-03-03T02:22:35;101416.82;;;3.61;69.05
44979;BME280;67464;52.438;-1.904;2023-03-03T02:24:59;101414.48;;;4.13;65.57
44979;BME280;67464;52.438;-1.904;2023-03-03T02:27:20;101416.92;;;3.62;70.49
44979;BME280;67464;52.438;-1.904;2023-03-03T02:29:45;101414.25;;;3.84;70.95
44979;BME280;67464;52.438;-1.904;2023-03-03T02:32:10;101419.01;;;3.24;71.87
44979;BME280;67464;52.438;-1.904;2023-03-03T02:34:45;101416.07;;;3.79;71.73
44979;BME280;67464;52.438;-1.904;2023-03-03T02:37:02;101418.43;;;3.06;74.39
44979;BME280;67464;52.438;-1.904;2023-03-03T02:39:27;101416.73;;;3.57;76.56
44979;BME280;67464;52.438;-1.904;2023-03-03T02:41:54;101410.32;;;3.87;71.74
44979;BME280;67464;52.438;-1.904;2023-03-03T02:44:19;101415.52;;;3.11;72.57
44979;BME280;67464;52.438;-1.904;2023-03-03T02:46:45;101418.10;;;3.37;76.07
44979;BME280;67464;52.438;-1.904;2023-03-03T02:49:12;101416.13;;;3.11;76.84
44979;BME280;67464;52.438;-1.904;2023-03-03T02:51:35;101421.25;;;3.02;79.12
44979;BME280;67464;52.438;-1.904;2023-03-03T02:53:59;101421.33;;;3.04;78.22
44979;BME280;67464;52.438;-1.904;2023-03-03T02:56:25;101422.16;;;3.42;77.47
44979;BME280;67464;52.438;-1.904;2023-03-03T02:58:49;101421.70;;;2.48;78.77
44979;BME280;67464;52.438;-1.904;2023-03-03T03:01:15;101422.20;;;3.16;77.34
44979;BME280;67464;52.438;-1.904;2023-03-03T03:03:41;101422.72;;;2.93;74.96
44979;BME280;67464;52.438;-1.904;2023-03-03T03:06:06;101422.48;;;3.98;74.40
44979;BME280;67464;52.438;-1.904;2023-03-03T03:08:31;101422.26;;;3.89;70.96
44979;BME280;67464;52.438;-1.904;2023-03-03T03:10:57;101421.34;;;3.86;73.95
44979;BME280;67464;52.438;-1.904;2023-03-03T03:13:22;101419.91;;;3.68;72.12
44979;BME280;67464;52.438;-1.904;2023-03-03T03:15:48;101428.48;;;2.38;76.78
44979;BME280;67464;52.438;-1.904;2023-03-03T03:18:13;101427.30;;;1.89;76.71
44979;BME280;67464;52.438;-1.904;2023-03-03T03:20:39;101426.31;;;2.53;84.73
44979;BME280;67464;52.438;-1.904;2023-03-03T03:23:04;101426.92;;;2.88;79.08
44979;BME280;67464;52.438;-1.904;2023-03-03T03:25:29;101426.07;;;2.99;80.83
44979;BME280;67464;52.438;-1.904;2023-03-03T03:27:54;101425.28;;;2.67;81.20
44979;BME280;67464;52.438;-1.904;2023-03-03T03:30:20;101425.38;;;2.94;82.72
44979;BME280;67464;52.438;-1.904;2023-03-03T03:32:46;101424.58;;;2.76;79.59
44979;BME280;67464;52.438;-1.904;2023-03-03T03:35:11;101421.80;;;2.87;80.83
44979;BME280;67464;52.438;-1.904;2023-03-03T03:37:36;101422.69;;;2.92;77.50
44979;BME280;67464;52.438;-1.904;2023-03-03T03:40:02;101422.82;;;3.68;73.70
44979;BME280;67464;52.438;-1.904;2023-03-03T03:42:27;101424.52;;;3.69;69.46
44979;BME280;67464;52.438;-1.904;2023-03-03T03:44:53;101419.71;;;3.87;72.78
44979;BME280;67464;52.438;-1.904;2023-03-03T03:47:19;101420.32;;;4.06;70.09
44979;BME280;67464;52.438;-1.904;2023-03-03T03:49:44;101420.84;;;3.36;70.48
44979;BME280;67464;52.438;-1.904;2023-03-03T03:52:09;101420.94;;;3.57;71.34
44979;BME280;67464;52.438;-1.904;2023-03-03T03:54:35;101418.67;;;3.97;75.38
44979;BME280;67464;52.438;-1.904;2023-03-03T03:57:01;101414.81;;;4.16;69.47
44979;BME280;67464;52.438;-1.904;2023-03-03T03:59:26;101410.21;;;3.59;71.70
44979;BME280;67464;52.438;-1.904;2023-03-03T04:01:52;101414.36;;;2.55;73.24
44979;BME280;67464;52.438;-1.904;2023-03-03T04:04:17;101413.93;;;2.80;82.15
44979;BME280;67464;52.438;-1.904;2023-03-03T04:06:43;101408.92;;;3.47;72.95
44979;BME280;67464;52.438;-1.904;2023-03-03T04:09:09;101411.34;;;3.86;75.33
44979;BME280;67464;52.438;-1.904;2023-03-03T04:11:34;101410.70;;;3.36;75.03
44979;BME280;67464;52.438;-1.904;2023-03-03T04:13:59;101411.11;;;2.68;74.71
44979;BME280;67464;52.438;-1.904;2023-03-03T04:16:25;101409.02;;;2.96;76.60
44979;BME280;67464;52.438;-1.904;2023-03-03T04:18:50;101409.88;;;3.35;82.10
44979;BME280;67464;52.438;-1.904;2023-03-03T04:21:16;101407.08;;;3.57;73.44
44979;BME280;67464;52.438;-1.904;2023-03-03T04:23:41;101412.14;;;3.34;72.73
44979;BME280;67464;52.438;-1.904;2023-03-03T04:26:06;101410.11;;;3.13;76.15
44979;BME280;67464;52.438;-1.904;2023-03-03T04:28:32;101411.40;;;1.56;77.08
44979;BME280;67464;52.438;-1.904;2023-03-03T04:30:57;101415.10;;;3.42;75.23
44979;BME280;67464;52.438;-1.904;2023-03-03T04:33:23;101415.44;;;2.72;79.72
44979;BME280;67464;52.438;-1.904;2023-03-03T04:35:48;101412.02;;;3.29;75.54
44979;BME280;67464;52.438;-1.904;2023-03-03T04:38:13;101413.00;;;3.72;70.38
44979;BME280;67464;52.438;-1.904;2023-03-03T04:40:40;101412.04;;;4.83;70.62
44979;BME280;67464;52.438;-1.904;2023-03-03T04:43:04;101416.94;;;5.19;67.69
44979;BME280;67464;52.438;-1.904;2023-03-03T04:45:30;101415.51;;;3.80;65.50
44979;BME280;67464;52.438;-1.904;2023-03-03T04:47:55;101411.67;;;3.90;69.17
44979;BME280;67464;52.438;-1.904;2023-03-03T04:50:21;101415.84;;;3.65;66.58
44979;BME280;67464;52.438;-1.904;2023-03-03T04:52:46;101417.32;;;3.24;70.76
44979;BME280;67464;52.438;-1.904;2023-03-03T04:55:11;101413.54;;;3.10;72.06
44979;BME280;67464;52.438;-1.904;2023-03-03T04:57:37;101416.12;;;3.85;71.54
44979;BME280;67464;52.438;-1.904;2023-03-03T05:00:04;101417.92;;;3.33;69.16
44979;BME280;67464;52.438;-1.904;2023-03-03T05:02:28;101415.79;;;3.21;74.28
44979;BME280;67464;52.438;-1.904;2023-03-03T05:04:54;101415.98;;;3.68;71.37
44979;BME280;67464;52.438;-1.904;2023-03-03T05:07:19;101417.68;;;2.87;69.66
44979;BME280;67464;52.438;-1.904;2023-03-03T05:09:44;101416.05;;;4.37;72.55
44979;BME280;67464;52.438;-1.904;2023-03-03T05:12:10;101415.62;;;3.41;69.33
44979;BME280;67464;52.438;-1.904;2023-03-03T05:14:36;101419.83;;;3.10;72.86
44979;BME280;67464;52.438;-1.904;2023-03-03T05:17:01;101418.36;;;3.61;74.54
44979;BME280;67464;52.438;-1.904;2023-03-03T05:19:27;101421.39;;;4.32;65.99
44979;BME280;67464;52.438;-1.904;2023-03-03T05:21:53;101417.29;;;4.14;65.56
44979;BME280;67464;52.438;-1.904;2023-03-03T05:24:18;101416.65;;;4.15;64.19
44979;BME280;67464;52.438;-1.904;2023-03-03T05:26:43;101420.04;;;4.38;65.29
44979;BME280;67464;52.438;-1.904;2023-03-03T05:29:09;101423.91;;;4.02;65.00
44979;BME280;67464;52.438;-1.904;2023-03-03T05:31:35;101428.17;;;3.10;66.98
44979;BME280;67464;52.438;-1.904;2023-03-03T05:34:00;101424.68;;;3.86;69.33
44979;BME280;67464;52.438;-1.904;2023-03-03T05:36:27;101424.55;;;3.78;67.63
44979;BME280;67464;52.438;-1.904;2023-03-03T05:38:52;101425.65;;;4.28;65.27
44979;BME280;67464;52.438;-1.904;2023-03-03T05:41:18;101425.54;;;4.63;64.84
44979;BME280;67464;52.438;-1.904;2023-03-03T05:43:43;101423.11;;;3.87;61.77
44979;BME280;67464;52.438;-1.904;2023-03-03T05:46:09;101425.64;;;3.98;66.37
44979;BME280;67464;52.438;-1.904;2023-03-03T05:48:34;101425.88;;;3.67;68.07
44979;BME280;67464;52.438;-1.904;2023-03-03T05:51:00;101426.07;;;3.98;67.84
44979;BME280;67464;52.438;-1.904;2023-03-03T05:53:24;101425.29;;;4.73;65.71
44979;BME280;67464;52.438;-1.904;2023-03-03T05:55:50;101428.21;;;4.42;64.38
44979;BME280;67464;52.438;-1.904;2023-03-03T05:58:15;101430.84;;;4.73;63.90
44979;BME280;67464;52.438;-1.904;2023-03-03T06:00:41;101429.96;;;5.29;61.77
44979;BME280;67464;52.438;-1.904;2023-03-03T06:03:07;101428.13;;;4.81;61.07
44979;BME280;67464;52.438;-1.904;2023-03-03T06:05:32;101434.52;;;5.63;63.47
44979;BME280;67464;52.438;-1.904;2023-03-03T06:07:58;101428.57;;;4.09;58.97
44979;BME280;67464;52.438;-1.904;2023-03-03T06:10:23;101429.69;;;4.26;63.42
44979;BME280;67464;52.438;-1.904;2023-03-03T06:12:48;101431.21;;;4.53;62.01
44979;BME280;67464;52.438;-1.904;2023-03-03T06:15:14;101429.56;;;3.41;62.56
44979;BME280;67464;52.438;-1.904;2023-03-03T06:17:39;101429.41;;;3.70;64.90
44979;BME280;67464;52.438;-1.904;2023-03-03T06:20:06;101428.28;;;4.04;65.81
44979;BME280;67464;52.438;-1.904;2023-03-03T06:22:31;101432.74;;;5.09;64.23
44979;BME280;67464;52.438;-1.904;2023-03-03T06:24:56;101428.73;;;4.60;58.79
44979;BME280;67464;52.438;-1.904;2023-03-03T06:27:22;101430.33;;;4.46;63.09
44979;BME280;67464;52.438;-1.904;2023-03-03T06:29:47;101431.89;;;4.78;61.71
44979;BME280;67464;52.438;-1.904;2023-03-03T06:32:13;101436.50;;;4.53;60.78
44979;BME280;67464;52.438;-1.904;2023-03-03T06:34:38;101440.68;;;3.16;64.34
44979;BME280;67464;52.438;-1.904;2023-03-03T06:37:04;101443.23;;;2.76;67.94
44979;BME280;67464;52.438;-1.904;2023-03-03T06:39:29;101442.18;;;3.01;71.34
44979;BME280;67464;52.438;-1.904;2023-03-03T06:41:54;101441.40;;;3.15;66.01
44979;BME280;67464;52.438;-1.904;2023-03-03T06:44:20;101444.18;;;2.96;68.51
44979;BME280;67464;52.438;-1.904;2023-03-03T06:46:45;101444.42;;;2.85;74.02
44979;BME280;67464;52.438;-1.904;2023-03-03T06:49:11;101444.85;;;2.77;77.12
44979;BME280;67464;52.438;-1.904;2023-03-03T06:51:38;101447.14;;;2.98;72.63
44979;BME280;67464;52.438;-1.904;2023-03-03T06:54:09;101448.54;;;3.23;69.48
44979;BME280;67464;52.438;-1.904;2023-03-03T06:56:27;101446.19;;;2.76;70.51
44979;BME280;67464;52.438;-1.904;2023-03-03T06:58:53;101445.34;;;3.71;71.18
44979;BME280;67464;52.438;-1.904;2023-03-03T07:01:18;101447.27;;;3.93;67.00
44979;BME280;67464;52.438;-1.904;2023-03-03T07:03:43;101451.82;;;3.97;69.13
44979;BME280;67464;52.438;-1.904;2023-03-03T07:06:19;101452.33;;;3.90;68.84
44979;BME280;67464;52.438;-1.904;2023-03-03T07:08:34;101454.77;;;4.85;68.54
44979;BME280;67464;52.438;-1.904;2023-03-03T07:11:06;101458.26;;;5.45;65.26
44979;BME280;67464;52.438;-1.904;2023-03-03T07:13:26;101460.37;;;5.49;61.20
44979;BME280;67464;52.438;-1.904;2023-03-03T07:15:52;101457.65;;;5.00;58.96
44979;BME280;67464;52.438;-1.904;2023-03-03T07:18:26;101458.23;;;4.07;59.82
44979;BME280;67464;52.438;-1.904;2023-03-03T07:20:41;101463.37;;;4.57;60.16
44979;BME280;67464;52.438;-1.904;2023-03-03T07:23:17;101465.06;;;4.99;59.21
44979;BME280;67464;52.438;-1.904;2023-03-03T07:25:33;101469.09;;;4.57;59.57
44979;BME280;67464;52.438;-1.904;2023-03-03T07:27:59;101475.96;;;5.39;60.72
44979;BME280;67464;52.438;-1.904;2023-03-03T07:30:25;101472.68;;;4.36;58.91
44979;BME280;67464;52.438;-1.904;2023-03-03T07:32:48;101473.90;;;4.53;61.23
44979;BME280;67464;52.438;-1.904;2023-03-03T07:35:23;101479.87;;;1.82;64.46
44979;BME280;67464;52.438;-1.904;2023-03-03T07:37:40;101481.27;;;3.55;68.53
44979;BME280;67464;52.438;-1.904;2023-03-03T07:42:36;101485.38;;;5.26;64.05
44979;BME280;67464;52.438;-1.904;2023-03-03T07:44:57;101488.99;;;5.90;60.20
44979;BME280;67464;52.438;-1.904;2023-03-03T07:47:23;101486.74;;;5.40;57.49
44979;BME280;67464;52.438;-1.904;2023-03-03T07:49:47;101488.28;;;5.12;60.37
44979;BME280;67464;52.438;-1.904;2023-03-03T07:52:23;101488.73;;;5.29;61.23
44979;BME280;67464;52.438;-1.904;2023-03-03T07:54:38;101490.07;;;5.18;60.26
44979;BME280;67464;52.438;-1.904;2023-03-03T07:59:27;101496.21;;;5.39;60.78
44979;BME280;67464;52.438;-1.904;2023-03-03T08:01:53;101498.58;;;5.67;57.78
44979;BME280;67464;52.438;-1.904;2023-03-03T08:04:22;101497.29;;;5.10;58.84
44979;BME280;67464;52.438;-1.904;2023-03-03T08:06:46;101499.29;;;5.04;59.14
44979;BME280;67464;52.438;-1.904;2023-03-03T08:11:36;101503.57;;;5.64;57.39
44979;BME280;67464;52.438;-1.904;2023-03-03T08:14:01;101504.61;;;4.86;58.18
44979;BME280;67464;52.438;-1.904;2023-03-03T08:16:34;101507.23;;;3.57;58.95
44979;BME280;67464;52.438;-1.904;2023-03-03T08:18:52;101512.07;;;3.35;64.21
44979;BME280;67464;52.438;-1.904;2023-03-03T08:21:18;101514.46;;;3.43;65.77
44979;BME280;67464;52.438;-1.904;2023-03-03T08:23:42;101515.62;;;3.83;64.19
44979;BME280;67464;52.438;-1.904;2023-03-03T08:26:08;101516.37;;;3.96;61.88
44979;BME280;67464;52.438;-1.904;2023-03-03T08:28:34;101518.01;;;4.10;62.99
44979;BME280;67464;52.438;-1.904;2023-03-03T08:30:59;101519.62;;;3.98;62.06
44979;BME280;67464;52.438;-1.904;2023-03-03T08:33:24;101517.95;;;4.72;58.55
44979;BME280;67464;52.438;-1.904;2023-03-03T08:35:50;101524.48;;;4.35;63.20
44979;BME280;67464;52.438;-1.904;2023-03-03T08:38:16;101525.91;;;4.04;62.47
44979;BME280;67464;52.438;-1.904;2023-03-03T08:40:41;101527.89;;;4.63;61.49
44979;BME280;67464;52.438;-1.904;2023-03-03T08:43:06;101530.63;;;4.44;63.19
44979;BME280;67464;52.438;-1.904;2023-03-03T08:45:32;101531.22;;;4.60;61.90
44979;BME280;67464;52.438;-1.904;2023-03-03T08:47:59;101536.35;;;4.24;62.43
44979;BME280;67464;52.438;-1.904;2023-03-03T08:50:23;101536.89;;;5.17;59.89
44979;BME280;67464;52.438;-1.904;2023-03-03T08:52:48;101536.00;;;5.74;58.59
44979;BME280;67464;52.438;-1.904;2023-03-03T08:55:14;101535.57;;;5.28;55.87
44979;BME280;67464;52.438;-1.904;2023-03-03T08:57:39;101536.69;;;4.45;58.69
44979;BME280;67464;52.438;-1.904;2023-03-03T09:00:06;101542.87;;;3.78;59.54
44979;BME280;67464;52.438;-1.904;2023-03-03T09:02:30;101542.23;;;4.37;62.04
44979;BME280;67464;52.438;-1.904;2023-03-03T09:04:56;101539.88;;;4.14;62.79
44979;BME280;67464;52.438;-1.904;2023-03-03T09:07:21;101541.00;;;5.06;60.36
44979;BME280;67464;52.438;-1.904;2023-03-03T09:09:46;101543.12;;;4.65;58.76
44979;BME280;67464;52.438;-1.904;2023-03-03T09:12:15;101544.24;;;4.09;59.13
44979;BME280;67464;52.438;-1.904;2023-03-03T09:14:37;101548.42;;;4.45;60.06
44979;BME280;67464;52.438;-1.904;2023-03-03T09:17:17;101552.36;;;4.33;60.79
44979;BME280;67464;52.438;-1.904;2023-03-03T09:19:31;101546.18;;;4.23;61.92
44979;BME280;67464;52.438;-1.904;2023-03-03T09:21:55;101545.57;;;4.95;57.14
44979;BME280;67464;52.438;-1.904;2023-03-03T09:24:24;101550.09;;;4.45;58.99
44979;BME280;67464;52.438;-1.904;2023-03-03T09:26:45;101545.19;;;4.75;61.18
44979;BME280;67464;52.438;-1.904;2023-03-03T09:29:17;101550.25;;;5.07;59.37
44979;BME280;67464;52.438;-1.904;2023-03-03T09:31:39;101556.74;;;4.85;59.64
44979;BME280;67464;52.438;-1.904;2023-03-03T09:34:11;101550.62;;;5.02;59.31
44979;BME280;67464;52.438;-1.904;2023-03-03T09:36:28;101555.99;;;4.02;55.76
44979;BME280;67464;52.438;-1.904;2023-03-03T09:38:53;101552.44;;;4.54;59.27
44979;BME280;67464;52.438;-1.904;2023-03-03T09:41:26;101555.34;;;4.16;59.22
44979;BME280;67464;52.438;-1.904;2023-03-03T09:43:54;101553.36;;;4.54;56.34
44979;BME280;67464;52.438;-1.904;2023-03-03T09:46:13;101554.46;;;4.26;61.22
44979;BME280;67464;52.438;-1.904;2023-03-03T09:48:43;101553.61;;;4.45;57.95
44979;BME280;67464;52.438;-1.904;2023-03-03T09:51:10;101556.43;;;4.42;62.16
44979;BME280;67464;52.438;-1.904;2023-03-03T09:53:40;101555.54;;;5.65;60.19
44979;BME280;67464;52.438;-1.904;2023-03-03T09:55:57;101553.91;;;5.38;55.93
44979;BME280;67464;52.438;-1.904;2023-03-03T09:58:26;101558.94;;;6.14;56.06
44979;BME280;67464;52.438;-1.904;2023-03-03T10:00:51;101558.25;;;4.60;55.01
44979;BME280;67464;52.438;-1.904;2023-03-03T10:05:39;101562.90;;;5.35;59.46
44979;BME280;67464;52.438;-1.904;2023-03-03T10:08:08;101562.43;;;5.22;55.56
44979;BME280;67464;52.438;-1.904;2023-03-03T10:10:41;101563.03;;;5.25;58.57
44979;BME280;67464;52.438;-1.904;2023-03-03T10:12:57;101567.39;;;5.55;57.35
44979;BME280;67464;52.438;-1.904;2023-03-03T10:15:22;101568.05;;;5.82;54.27
44979;BME280;67464;52.438;-1.904;2023-03-03T10:17:47;101569.62;;;6.13;55.88
44979;BME280;67464;52.438;-1.904;2023-03-03T10:20:20;101570.44;;;6.31;53.66
44979;BME280;67464;52.438;-1.904;2023-03-03T10:22:36;101568.24;;;5.23;56.88
44979;BME280;67464;52.438;-1.904;2023-03-03T10:25:02;101572.36;;;5.05;56.19
44979;BME280;67464;52.438;-1.904;2023-03-03T10:27:35;101576.63;;;4.38;55.57
44979;BME280;67464;52.438;-1.904;2023-03-03T10:29:55;101577.38;;;4.12;58.09
44979;BME280;67464;52.438;-1.904;2023-03-03T10:32:25;101578.04;;;4.31;56.48
44979;BME280;67464;52.438;-1.904;2023-03-03T10:34:49;101578.15;;;4.46;57.93
44979;BME280;67464;52.438;-1.904;2023-03-03T10:37:05;101573.66;;;5.04;55.20
44979;BME280;67464;52.438;-1.904;2023-03-03T10:39:39;101579.49;;;4.44;54.51
44979;BME280;67464;52.438;-1.904;2023-03-03T10:42:05;101578.71;;;4.36;55.48
44979;BME280;67464;52.438;-1.904;2023-03-03T10:44:33;101583.24;;;3.69;59.95
44979;BME280;67464;52.438;-1.904;2023-03-03T10:46:53;101582.51;;;4.13;59.94
44979;BME280;67464;52.438;-1.904;2023-03-03T10:49:19;101584.25;;;4.54;60.74
44979;BME280;67464;52.438;-1.904;2023-03-03T10:51:43;101583.80;;;4.73;60.28
44979;BME280;67464;52.438;-1.904;2023-03-03T10:54:13;101586.01;;;4.23;57.44
44979;BME280;67464;52.438;-1.904;2023-03-03T10:56:34;101585.60;;;4.77;58.25
44979;BME280;67464;52.438;-1.904;2023-03-03T10:59:03;101584.50;;;4.72;59.71
44979;BME280;67464;52.438;-1.904;2023-03-03T11:01:26;101593.94;;;3.77;56.18
44979;BME280;67464;52.438;-1.904;2023-03-03T11:03:54;101593.05;;;3.58;62.54
44979;BME280;67464;52.438;-1.904;2023-03-03T11:06:13;101592.54;;;3.90;61.02
44979;BME280;67464;52.438;-1.904;2023-03-03T11:08:38;101591.11;;;4.78;60.56
44979;BME280;67464;52.438;-1.904;2023-03-03T11:11:06;101588.88;;;5.18;57.28
44979;BME280;67464;52.438;-1.904;2023-03-03T11:13:32;101592.03;;;4.59;58.93
44979;BME280;67464;52.438;-1.904;2023-03-03T11:16:00;101598.06;;;3.77;55.10
44979;BME280;67464;52.438;-1.904;2023-03-03T11:18:23;101600.20;;;4.62;61.02
44979;BME280;67464;52.438;-1.904;2023-03-03T11:20:46;101607.66;;;4.33;57.35
44979;BME280;67464;52.438;-1.904;2023-03-03T11:23:20;101603.16;;;4.75;58.19
44979;BME280;67464;52.438;-1.904;2023-03-03T11:25:36;101601.37;;;5.12;58.62
44979;BME280;67464;52.438;-1.904;2023-03-03T11:28:10;101610.00;;;6.37;57.68
44979;BME280;67464;52.438;-1.904;2023-03-03T11:30:30;101610.34;;;6.17;51.21
44979;BME280;67464;52.438;-1.904;2023-03-03T11:32:51;101613.05;;;6.70;51.96
44979;BME280;67464;52.438;-1.904;2023-03-03T11:35:20;101615.83;;;6.67;50.45
44979;BME280;67464;52.438;-1.904;2023-03-03T11:37:40;101622.70;;;6.49;50.34
44979;BME280;67464;52.438;-1.904;2023-03-03T11:40:11;101620.90;;;6.13;52.41
44979;BME280;67464;52.438;-1.904;2023-03-03T11:42:34;101619.46;;;5.35;53.76
44979;BME280;67464;52.438;-1.904;2023-03-03T11:44:55;101618.29;;;5.58;53.52
44979;BME280;67464;52.438;-1.904;2023-03-03T11:47:23;101628.06;;;2.57;57.38
44979;BME280;67464;52.438;-1.904;2023-03-03T11:49:48;101623.32;;;3.66;58.69
44979;BME280;67464;52.438;-1.904;2023-03-03T11:52:21;101620.85;;;4.38;56.98
44979;BME280;67464;52.438;-1.904;2023-03-03T11:54:40;101616.70;;;5.85;60.15
44979;BME280;67464;52.438;-1.904;2023-03-03T11:57:12;101614.13;;;5.63;53.73
44979;BME280;67464;52.438;-1.904;2023-03-03T11:59:40;101614.58;;;6.56;55.30
44979;BME280;67464;52.438;-1.904;2023-03-03T12:01:54;101616.05;;;6.41;54.92
44979;BME280;67464;52.438;-1.904;2023-03-03T12:04:19;101611.98;;;6.68;52.94
44979;BME280;67464;52.438;-1.904;2023-03-03T12:06:54;101610.23;;;5.84;51.14
44979;BME280;67464;52.438;-1.904;2023-03-03T12:09:21;101614.70;;;6.43;54.76
44979;BME280;67464;52.438;-1.904;2023-03-03T12:11:37;101613.43;;;6.67;53.38
44979;BME280;67464;52.438;-1.904;2023-03-03T12:14:03;101614.41;;;6.69;51.16
44979;BME280;67464;52.438;-1.904;2023-03-03T12:16:37;101615.76;;;6.47;49.63
44979;BME280;67464;52.438;-1.904;2023-03-03T12:18:59;101613.49;;;6.69;52.15
44979;BME280;67464;52.438;-1.904;2023-03-03T12:21:27;101607.79;;;6.91;50.14
44979;BME280;67464;52.438;-1.904;2023-03-03T12:23:54;101609.46;;;7.13;51.76
44979;BME280;67464;52.438;-1.904;2023-03-03T12:26:10;101600.92;;;7.22;50.73
44979;BME280;67464;52.438;-1.904;2023-03-03T12:28:36;101604.43;;;6.08;52.67
44979;BME280;67464;52.438;-1.904;2023-03-03T12:31:08;101605.12;;;6.57;49.62
44979;BME280;67464;52.438;-1.904;2023-03-03T12:33:34;101609.75;;;6.90;52.70
44979;BME280;67464;52.438;-1.904;2023-03-03T12:35:56;101605.86;;;6.31;54.80
44979;BME280;67464;52.438;-1.904;2023-03-03T12:38:23;101602.17;;;6.82;49.96
44979;BME280;67464;52.438;-1.904;2023-03-03T12:40:47;101601.01;;;5.99;51.42
44979;BME280;67464;52.438;-1.904;2023-03-03T12:43:20;101597.60;;;5.67;52.68
44979;BME280;67464;52.438;-1.904;2023-03-03T12:45:39;101598.77;;;6.46;54.31
44979;BME280;67464;52.438;-1.904;2023-03-03T12:48:00;101596.20;;;6.05;51.84
44979;BME280;67464;52.438;-1.904;2023-03-03T12:50:31;101595.86;;;6.28;50.97